createdAt,value
2023-11-28T00:00:36.939Z,8.45
2023-11-28T00:05:40.033Z,8.15
2023-11-28T00:10:44.454Z,9.35
2023-11-28T00:15:47.572Z,9.88
2023-11-28T00:20:50.486Z,10.63
2023-11-28T00:25:54.892Z,10.40
2023-11-28T00:30:58.113Z,9.55
2023-11-28T00:36:01.063Z,10.23
2023-11-28T00:41:06.534Z,9.90
2023-11-28T00:46:11.071Z,9.80
2023-11-28T00:51:15.749Z,9.60
2023-11-28T00:56:23.469Z,9.63
2023-11-28T01:01:26.491Z,9.32
2023-11-28T01:06:29.520Z,9.02
2023-11-28T01:11:33.816Z,9.95
2023-11-28T01:16:36.925Z,9.50
2023-11-28T01:21:39.953Z,8.93
2023-11-28T01:26:44.297Z,7.28
2023-11-28T01:31:47.379Z,7.53
2023-11-28T01:36:50.513Z,6.85
2023-11-28T01:41:54.853Z,7.18
2023-11-28T01:46:58.725Z,5.63
2023-11-28T01:52:03.688Z,5.60
2023-11-28T01:57:08.084Z,5.63
2023-11-28T02:02:11.076Z,5.60
2023-11-28T02:07:15.546Z,5.22
2023-11-28T02:12:19.969Z,5.50
2023-11-28T02:17:23.651Z,6.03
2023-11-28T02:22:27.366Z,6.22
2023-11-28T02:27:31.810Z,6.80
2023-11-28T02:32:35.881Z,7.28
2023-11-28T02:37:42.444Z,6.68
2023-11-28T02:42:46.837Z,6.63
2023-11-28T02:47:50.587Z,6.57
2023-11-28T02:52:53.659Z,7.82
2023-11-28T02:57:58.133Z,7.40
2023-11-28T03:03:01.214Z,7.95
2023-11-28T03:08:04.538Z,8.55
2023-11-28T03:13:09.328Z,9.07
2023-11-28T03:18:12.382Z,9.52
2023-11-28T03:23:15.457Z,10.13
2023-11-28T03:28:19.753Z,9.07
2023-11-28T03:33:22.719Z,8.85
2023-11-28T03:38:25.705Z,8.73
2023-11-28T03:43:30.195Z,8.77
2023-11-28T03:48:33.151Z,9.48
2023-11-28T03:53:37.691Z,9.10
2023-11-28T03:58:42.100Z,8.18
2023-11-28T04:03:45.945Z,9.73
2023-11-28T04:08:49.420Z,10.02
2023-11-28T04:13:54.679Z,10.27
2023-11-28T04:18:57.890Z,10.60
2023-11-28T04:24:00.907Z,10.18
2023-11-28T04:29:05.630Z,10.82
2023-11-28T04:34:08.868Z,10.32
2023-11-28T04:39:12.660Z,8.55
2023-11-28T04:44:17.682Z,9.75
2023-11-28T04:49:21.344Z,8.80
2023-11-28T04:54:24.662Z,8.48
2023-11-28T04:59:29.661Z,8.18
2023-11-28T05:04:32.711Z,7.97
2023-11-28T05:09:35.792Z,7.75
2023-11-28T05:14:40.121Z,7.53
2023-11-28T05:19:43.509Z,6.97
2023-11-28T05:24:46.512Z,7.35
2023-11-28T05:29:50.904Z,7.53
2023-11-28T05:34:53.947Z,6.95
2023-11-28T05:39:57.012Z,6.63
2023-11-28T05:45:01.307Z,5.95
2023-11-28T05:50:05.047Z,6.13
2023-11-28T05:55:09.025Z,6.00
2023-11-28T06:00:18.752Z,6.32
2023-11-28T06:05:23.359Z,6.85
2023-11-28T06:10:27.931Z,6.82
2023-11-28T06:15:32.382Z,5.55
2023-11-28T06:20:35.354Z,5.15
2023-11-28T06:25:38.321Z,5.28
2023-11-28T06:30:42.615Z,4.47
2023-11-28T06:35:45.645Z,3.70
2023-11-28T06:40:48.743Z,4.15
2023-11-28T06:46:00.094Z,3.47
2023-11-28T06:51:03.152Z,3.87
2023-11-28T06:56:06.864Z,3.05
2023-11-28T07:01:11.231Z,3.88
2023-11-28T07:06:14.275Z,3.22
2023-11-28T07:11:21.081Z,3.22
2023-11-28T07:16:25.407Z,3.22
2023-11-28T07:21:28.415Z,3.15
2023-11-28T07:26:31.405Z,2.90
2023-11-28T07:31:35.746Z,2.95
2023-11-28T07:36:38.760Z,2.55
2023-11-28T07:41:41.848Z,2.70
2023-11-28T07:46:47.565Z,3.25
2023-11-28T07:51:50.570Z,3.38
2023-11-28T07:56:53.545Z,3.10
2023-11-28T08:01:57.890Z,3.00
2023-11-28T08:07:00.973Z,5.03
2023-11-28T08:12:04.244Z,4.93
2023-11-28T08:17:08.727Z,3.47
2023-11-28T08:22:11.738Z,3.03
2023-11-28T08:27:17.118Z,3.25
2023-11-28T08:32:22.244Z,3.80
2023-11-28T08:37:25.262Z,3.60
2023-11-28T08:42:28.314Z,4.03
2023-11-28T08:47:32.712Z,4.45
2023-11-28T08:52:35.811Z,4.05
2023-11-28T08:57:38.774Z,4.82
2023-11-28T09:02:44.556Z,4.13
2023-11-28T09:07:48.810Z,3.30
2023-11-28T09:12:51.755Z,4.40
2023-11-28T09:17:56.175Z,3.88
2023-11-28T09:22:59.153Z,3.78
2023-11-28T09:28:02.478Z,4.03
2023-11-28T09:33:06.897Z,3.78
2023-11-28T09:38:10.814Z,3.75
2023-11-28T09:43:13.816Z,4.03
2023-11-28T09:48:20.217Z,3.85
2023-11-28T09:53:29.945Z,3.70
2023-11-28T09:58:37.254Z,3.53
2023-11-28T10:03:41.867Z,3.80
2023-11-28T10:08:48.771Z,3.30
2023-11-28T10:13:51.736Z,3.58
2023-11-28T10:18:56.980Z,3.50
2023-11-28T10:24:00.521Z,3.40
2023-11-28T10:29:03.602Z,2.70
2023-11-28T10:34:10.655Z,3.67
2023-11-28T10:39:14.446Z,3.03
2023-11-28T10:44:17.746Z,4.20
2023-11-28T10:49:22.104Z,4.38
2023-11-28T10:54:28.298Z,4.15
2023-11-28T10:59:36.413Z,3.90
2023-11-28T11:04:40.799Z,3.58
2023-11-28T11:09:45.383Z,3.90
2023-11-28T11:14:57.959Z,3.35
2023-11-28T11:20:06.115Z,3.42
2023-11-28T11:25:09.952Z,3.40
2023-11-28T11:30:13.897Z,3.55
2023-11-28T11:35:20.193Z,3.17
2023-11-28T11:40:24.095Z,3.67
2023-11-28T11:45:29.885Z,3.60
2023-11-28T11:50:38.452Z,3.30
2023-11-28T11:55:46.837Z,3.22
2023-11-28T12:00:50.044Z,3.45
2023-11-28T12:05:55.476Z,4.03
2023-11-28T12:11:10.533Z,3.80
2023-11-28T12:16:14.135Z,3.65
2023-11-28T12:21:18.415Z,3.42
2023-11-28T12:26:21.435Z,2.70
2023-11-28T12:31:24.520Z,3.13
2023-11-28T12:36:29.807Z,2.72
2023-11-28T12:41:38.649Z,2.95
2023-11-28T12:46:43.053Z,2.90
2023-11-28T12:51:47.584Z,3.25
2023-11-28T12:56:53.745Z,2.63
2023-11-28T13:01:57.709Z,3.10
2023-11-28T13:07:13.643Z,4.15
2023-11-28T13:12:24.749Z,2.95
2023-11-28T13:17:27.819Z,2.85
2023-11-28T13:22:32.145Z,2.80
2023-11-28T13:27:36.474Z,2.67
2023-11-28T13:32:39.482Z,3.28
2023-11-28T13:37:43.798Z,3.30
2023-11-28T13:42:46.881Z,3.33
2023-11-28T13:47:49.887Z,3.55
2023-11-28T13:52:54.215Z,3.15
2023-11-28T13:57:58.046Z,3.42
2023-11-28T14:03:01.209Z,4.38
2023-11-28T14:08:07.184Z,3.88
2023-11-28T14:13:10.100Z,4.20
2023-11-28T14:18:14.324Z,3.85
2023-11-28T14:23:18.711Z,4.30
2023-11-28T14:28:21.907Z,3.78
2023-11-28T14:33:29.713Z,3.80
2023-11-28T14:38:34.149Z,4.38
2023-11-28T14:43:37.123Z,4.03
2023-11-28T14:48:40.121Z,3.08
2023-11-28T14:53:44.435Z,3.75
2023-11-28T14:58:47.452Z,4.75
2023-11-28T15:03:50.586Z,7.78
2023-11-28T15:08:55.280Z,6.20
2023-11-28T15:13:58.229Z,5.30
2023-11-28T15:19:01.254Z,5.07
2023-11-28T15:24:06.223Z,4.95
2023-11-28T15:29:12.006Z,5.45
2023-11-28T15:34:15.998Z,5.80
2023-11-28T15:39:20.411Z,6.57
2023-11-28T15:44:23.336Z,6.80
2023-11-28T15:49:37.220Z,6.35
2023-11-28T15:54:51.458Z,6.50
2023-11-28T15:59:59.072Z,7.72
2023-11-28T16:05:02.631Z,6.95
2023-11-28T16:10:09.087Z,7.25
2023-11-28T16:15:13.064Z,8.13
2023-11-28T16:20:16.170Z,8.25
2023-11-28T16:25:20.889Z,7.72
2023-11-28T16:30:23.982Z,9.15
2023-11-28T16:35:27.166Z,9.07
2023-11-28T16:40:31.504Z,9.15
2023-11-28T16:45:34.410Z,8.50
2023-11-28T16:50:37.685Z,8.68
2023-11-28T16:55:42.883Z,9.05
2023-11-28T17:00:47.610Z,8.50
2023-11-28T17:05:50.594Z,9.63
2023-11-28T17:10:54.993Z,10.45
2023-11-28T17:15:58.350Z,10.25
2023-11-28T17:21:01.441Z,10.15
2023-11-28T17:26:07.279Z,10.45
2023-11-28T17:31:10.896Z,9.23
2023-11-28T17:36:13.992Z,10.50
2023-11-28T17:41:21.092Z,11.23
2023-11-28T17:46:24.193Z,10.70
2023-11-28T17:51:27.150Z,11.18
2023-11-28T17:56:31.559Z,12.20
2023-11-28T18:01:40.840Z,10.00
2023-11-28T18:06:51.788Z,10.80
2023-11-28T18:11:56.098Z,11.93
2023-11-28T18:17:01.559Z,12.00
2023-11-28T18:22:05.500Z,13.48
2023-11-28T18:27:09.797Z,13.52
2023-11-28T18:32:13.671Z,13.00
2023-11-28T18:37:17.213Z,11.85
2023-11-28T18:42:21.709Z,12.15
2023-11-28T18:47:24.727Z,13.70
2023-11-28T18:52:27.674Z,15.85
2023-11-28T18:57:32.057Z,14.50
2023-11-28T19:02:35.240Z,13.88
2023-11-28T19:07:38.283Z,14.20
2023-11-28T19:12:42.558Z,15.07
2023-11-28T19:17:45.706Z,13.60
2023-11-28T19:22:48.976Z,14.43
2023-11-28T19:27:53.838Z,13.52
2023-11-28T19:32:56.914Z,15.02
2023-11-28T19:38:00.746Z,15.85
2023-11-28T19:43:05.541Z,12.15
2023-11-28T19:48:10.541Z,14.45
2023-11-28T19:53:16.811Z,13.13
2023-11-28T19:58:22.792Z,14.30
2023-11-28T20:03:27.616Z,13.93
2023-11-28T20:08:31.242Z,12.02
2023-11-28T20:13:36.167Z,11.77
2023-11-28T20:18:39.444Z,13.32
2023-11-28T20:23:42.994Z,14.10
2023-11-28T20:28:48.326Z,14.23
2023-11-28T20:33:52.572Z,11.13
2023-11-28T20:38:56.020Z,13.30
2023-11-28T20:44:01.379Z,10.45
2023-11-28T20:49:04.459Z,10.20
2023-11-28T20:54:11.567Z,10.20
2023-11-28T20:59:17.191Z,12.27
2023-11-28T21:04:25.747Z,11.63
2023-11-28T21:09:29.905Z,12.73
2023-11-28T21:14:34.657Z,11.02
2023-11-28T21:19:37.620Z,10.65
2023-11-28T21:24:41.557Z,8.00
2023-11-28T21:29:48.314Z,9.88
2023-11-28T21:34:51.480Z,9.55
2023-11-28T21:39:55.469Z,10.85
2023-11-28T21:45:00.343Z,8.75
2023-11-28T21:50:10.808Z,7.80
2023-11-28T21:55:16.261Z,8.27
2023-11-28T22:00:22.778Z,8.00
2023-11-28T22:05:26.846Z,9.07
2023-11-28T22:10:30.794Z,8.80
2023-11-28T22:15:38.910Z,7.07
2023-11-28T22:20:43.296Z,9.88
2023-11-28T22:25:46.341Z,9.55
2023-11-28T22:30:50.762Z,9.48
2023-11-28T22:35:53.693Z,7.78
2023-11-28T22:40:56.978Z,11.45
2023-11-28T22:46:01.331Z,7.15
2023-11-28T22:51:05.194Z,9.88
2023-11-28T22:56:12.904Z,9.50
2023-11-28T23:01:23.288Z,9.90
2023-11-28T23:06:28.219Z,8.52
2023-11-28T23:11:32.267Z,7.25
2023-11-28T23:16:36.847Z,7.57
2023-11-28T23:21:40.072Z,6.22
2023-11-28T23:26:47.653Z,11.45
2023-11-28T23:31:52.032Z,9.55
2023-11-28T23:36:55.075Z,9.23
2023-11-28T23:41:57.987Z,10.48
2023-11-28T23:47:02.321Z,9.60
2023-11-28T23:52:05.776Z,11.90
2023-11-28T23:57:08.751Z,9.00
